Accueil
METAR-TAF:

METAR-TAF

Aéroports :

Aéroport de Caen - Carpiquet

Caen, France

latitude: 49-11N, longitude: 000-27W, altitude: 78 m

Observation

Le bulletin a été fait il y a 34 minutes, à 05:30 UTC
Vent 3 kt de nord-ouest
Température 12°C
Humidité 88%
Pression 1034 hPa
Visibilité 10 km ou plus
pas de nuages en-dessous de 1500 mètres et pas de cumulonimbus.

METAR: LFRK 270530Z AUTO 31003KT CAVOK 12/10 Q1034 NOSIG

Heure: 08:04 (06:04 UTC)

Prévision

Le bulletin a été fait il y a 1 heure et 4 minutes, à 05:00 UTC
Prévision valable du 27 à 06 UTC au 28 à 06 UTC
Vent 4 kt de nord-ouest
Visibilité 10 km ou plus
pas de nuages en-dessous de 1500 mètres et pas de cumulonimbus.
Evoluant progressivement
du 27 à 11 UTC au 27 à 13 UTC
Vent 10 kt de nord/nord-est

TAF: LFRK 270500Z 2706/2806 32004KT CAVOK BECMG 2711/2713 02010KT

Observations et prévisions météorologiques de plus de 4000 aéroports (messages METAR et TAF).

Les stations disponibles sont représentées par des disques jaunes et rouges sur la carte.

Passer la souris dessus pour voir le nom de la station.

Cliquer dessus pour voir les observations et prévisions météorologiques.

Pour changer de carte: cliquez sur les boutons verts avec une croix noire pour zoomer, sur le bouton vert avec un tiret pour effectuer un zoom arrière, ou sur les flèches vertes pour les cartes adjacentes.


METAR-TAF: